LTCK/MSR METAR and TAF weather

Enter ICAO airport designator
Station Type Date Time Source
LTCK METAR 2021/05/15 12:50 UTC NOAA

LTCK 151250Z 11006KT 080V140 9999 SCT040 28/03 Q1014


Station Type Date Time Source
LTCK Decoded METAR 2021/05/15 12:50 UTC NOAA

Mus Tur-Afb , Turkey (LTCK) 38-45N 041-40E
May 15, 2021 - 08:50 AM EDT / 2021.05.15 1250 UTC
Wind: from the ESE (110 degrees) at 7 MPH (6 KT) (direction variable):0
Visibility: greater than 7 mile(s):0
Sky conditions: partly cloudy
Temperature: 82 F (28 C)
Dew Point: 37 F (3 C)
Relative Humidity: 20%
Pressure (altimeter): 29.94 in. Hg (1014 hPa)
ob: LTCK 151250Z 11006KT 080V140 9999 SCT040 28/03 Q1014
cycle: 13

Station Type Date Time Source
LTCK TAF UTC NOAA

Error!

Example: see airport list